createdAt,value
2023-01-11T00:00:06.212Z,98867.86
2023-01-11T00:02:08.931Z,98860.77
2023-01-11T00:04:11.940Z,98859.28
2023-01-11T00:06:14.715Z,98854.66
2023-01-11T00:08:19.299Z,98849.76
2023-01-11T00:10:23.788Z,98850.94
2023-01-11T00:12:31.349Z,98845.79
2023-01-11T00:14:33.972Z,98840.82
2023-01-11T00:16:36.566Z,98837.57
2023-01-11T00:18:39.296Z,98840.45
2023-01-11T00:20:42.107Z,98840.79
2023-01-11T00:22:45.374Z,98839.34
2023-01-11T00:24:48.233Z,98843.19
2023-01-11T00:26:50.922Z,98843.59
2023-01-11T00:28:53.903Z,98842.75
2023-01-11T00:30:56.923Z,98839.83
2023-01-11T00:33:00.665Z,98837.58
2023-01-11T00:35:03.681Z,98832.93
2023-01-11T00:37:06.377Z,98830.10
2023-01-11T00:39:08.950Z,98823.89
2023-01-11T00:41:32.276Z,98822.48
2023-01-11T00:43:53.190Z,98815.84
2023-01-11T00:46:18.806Z,98822.02
2023-01-11T00:48:21.539Z,98814.43
2023-01-11T00:50:30.399Z,98812.30
2023-01-11T00:52:32.972Z,98810.45
2023-01-11T00:54:37.148Z,98811.41
2023-01-11T00:56:40.842Z,98807.59
2023-01-11T00:58:43.765Z,98801.31
2023-01-11T01:00:46.539Z,98799.08
2023-01-11T01:02:50.325Z,98798.75
2023-01-11T01:04:53.500Z,98793.87
2023-01-11T01:06:56.673Z,98797.59
2023-01-11T01:09:00.361Z,98791.92
2023-01-11T01:11:02.949Z,98793.80
2023-01-11T01:13:24.344Z,98792.05
2023-01-11T01:15:27.533Z,98786.17
2023-01-11T01:17:30.340Z,98784.99
2023-01-11T01:19:36.202Z,98784.80
2023-01-11T01:21:39.005Z,98781.80
2023-01-11T01:23:41.704Z,98782.23
2023-01-11T01:25:44.245Z,98778.97
2023-01-11T01:27:46.790Z,98779.11
2023-01-11T01:29:49.377Z,98777.36
2023-01-11T01:31:51.950Z,98776.52
2023-01-11T01:33:54.510Z,98777.02
2023-01-11T01:35:57.210Z,98778.50
2023-01-11T01:37:59.773Z,98779.58
2023-01-11T01:40:02.798Z,98777.81
2023-01-11T01:42:06.233Z,98775.16
2023-01-11T01:44:46.417Z,98776.06
2023-01-11T01:46:49.010Z,98774.39
2023-01-11T01:48:59.090Z,98768.29
2023-01-11T01:51:03.582Z,98766.77
2023-01-11T01:53:14.040Z,98766.26
2023-01-11T01:55:26.680Z,98760.28
2023-01-11T01:57:34.444Z,98761.44
2023-01-11T01:59:37.405Z,98754.84
2023-01-11T02:01:50.041Z,98754.82
2023-01-11T02:03:53.305Z,98749.87
2023-01-11T02:05:56.716Z,98747.55
2023-01-11T02:08:03.565Z,98744.46
2023-01-11T02:10:21.082Z,98742.48
2023-01-11T02:12:25.809Z,98739.86
2023-01-11T02:14:31.387Z,98738.37
2023-01-11T02:16:34.190Z,98736.23
2023-01-11T02:18:38.338Z,98737.28
2023-01-11T02:20:50.815Z,98731.28
2023-01-11T02:23:12.112Z,98728.04
2023-01-11T02:25:29.822Z,98724.59
2023-01-11T02:27:53.043Z,98721.99
2023-01-11T02:30:26.921Z,98718.82
2023-01-11T02:32:46.908Z,98716.45
2023-01-11T02:35:08.589Z,98714.31
2023-01-11T02:37:39.789Z,98709.74
2023-01-11T02:39:58.373Z,98706.80
2023-01-11T02:42:32.327Z,98706.88
2023-01-11T02:44:58.645Z,98704.59
2023-01-11T02:47:07.588Z,98699.69
2023-01-11T02:49:22.382Z,98701.36
2023-01-11T02:51:47.198Z,98703.85
2023-01-11T02:53:55.876Z,98696.09
2023-01-11T02:56:04.045Z,98696.75
2023-01-11T02:58:11.056Z,98694.41
2023-01-11T03:00:18.826Z,98692.15
2023-01-11T03:02:25.435Z,98688.30
2023-01-11T03:04:30.476Z,98687.07
2023-01-11T03:06:35.135Z,98687.98
2023-01-11T03:09:08.562Z,98684.09
2023-01-11T03:12:04.303Z,98688.81
2023-01-11T03:14:21.527Z,98686.33
2023-01-11T03:16:57.027Z,98681.86
2023-01-11T03:19:25.463Z,98673.08
2023-01-11T03:21:27.996Z,98670.14
2023-01-11T03:23:42.088Z,98672.03
2023-01-11T03:26:06.481Z,98670.72
2023-01-11T03:28:37.742Z,98666.48
2023-01-11T03:30:53.737Z,98661.89
2023-01-11T03:33:09.340Z,98666.75
2023-01-11T03:35:32.014Z,98664.72
2023-01-11T03:37:44.782Z,98663.58
2023-01-11T03:40:16.909Z,98661.38
2023-01-11T03:42:23.617Z,98660.03
2023-01-11T03:44:31.655Z,98658.60
2023-01-11T03:46:39.005Z,98657.27
2023-01-11T03:48:55.506Z,98657.08
2023-01-11T03:51:00.223Z,98649.77
2023-01-11T03:53:07.267Z,98647.52
2023-01-11T03:55:12.478Z,98651.69
2023-01-11T03:57:26.476Z,98647.48
2023-01-11T03:59:29.226Z,98651.19
2023-01-11T04:01:32.380Z,98645.34
2023-01-11T04:03:35.188Z,98639.59
2023-01-11T04:05:40.140Z,98639.45
2023-01-11T04:07:42.880Z,98638.41
2023-01-11T04:09:46.255Z,98630.98
2023-01-11T04:11:49.127Z,98635.02
2023-01-11T04:13:51.688Z,98631.45
2023-01-11T04:15:54.563Z,98626.30
2023-01-11T04:18:04.795Z,98624.91
2023-01-11T04:20:16.289Z,98621.61
2023-01-11T04:22:20.538Z,98620.83
2023-01-11T04:24:23.397Z,98617.45
2023-01-11T04:26:26.234Z,98617.08
2023-01-11T04:28:29.312Z,98612.50
2023-01-11T04:30:32.517Z,98613.66
2023-01-11T04:32:35.516Z,98610.84
2023-01-11T04:34:38.417Z,98608.69
2023-01-11T04:36:42.435Z,98609.26
2023-01-11T04:38:45.130Z,98609.33
2023-01-11T04:40:48.553Z,98609.55
2023-01-11T04:42:51.722Z,98604.14
2023-01-11T04:45:06.894Z,98605.42
2023-01-11T04:47:12.807Z,98597.54
2023-01-11T04:49:16.302Z,98596.13
2023-01-11T04:51:19.685Z,98592.04
2023-01-11T04:53:22.406Z,98593.81
2023-01-11T04:55:26.897Z,98594.31
2023-01-11T04:57:29.853Z,98593.81
2023-01-11T04:59:33.110Z,98590.60
2023-01-11T05:01:36.319Z,98585.64
2023-01-11T05:03:40.201Z,98581.95
2023-01-11T05:05:43.118Z,98574.36
2023-01-11T05:07:48.349Z,98572.57
2023-01-11T05:09:51.001Z,98565.63
2023-01-11T05:11:53.521Z,98565.41
2023-01-11T05:13:59.880Z,98565.20
2023-01-11T05:16:02.414Z,98559.67
2023-01-11T05:18:05.977Z,98560.38
2023-01-11T05:20:09.716Z,98559.73
2023-01-11T05:22:12.553Z,98565.75
2023-01-11T05:24:16.310Z,98562.61
2023-01-11T05:26:22.913Z,98557.51
2023-01-11T05:28:25.649Z,98557.27
2023-01-11T05:30:32.862Z,98549.26
2023-01-11T05:32:39.650Z,98552.25
2023-01-11T05:34:43.725Z,98546.50
2023-01-11T05:36:46.823Z,98539.22
2023-01-11T05:38:54.506Z,98544.63
2023-01-11T05:40:59.220Z,98544.70
2023-01-11T05:43:01.858Z,98543.58
2023-01-11T05:45:24.542Z,98549.46
2023-01-11T05:47:27.293Z,98545.50
2023-01-11T05:49:29.874Z,98544.15
2023-01-11T05:51:33.377Z,98539.91
2023-01-11T05:53:35.985Z,98539.76
2023-01-11T05:55:38.601Z,98539.70
2023-01-11T05:57:42.700Z,98541.70
2023-01-11T05:59:45.341Z,98545.16
2023-01-11T06:01:51.945Z,98547.77
2023-01-11T06:03:54.863Z,98547.04
2023-01-11T06:06:00.038Z,98547.24
2023-01-11T06:08:02.638Z,98543.14
2023-01-11T06:10:05.685Z,98541.18
2023-01-11T06:12:08.213Z,98544.13
2023-01-11T06:14:11.243Z,98544.01
2023-01-11T06:16:19.334Z,98542.69
2023-01-11T06:18:22.025Z,98544.08
2023-01-11T06:20:24.761Z,98542.29
2023-01-11T06:22:27.282Z,98536.61
2023-01-11T06:24:29.853Z,98528.29
2023-01-11T06:26:32.435Z,98528.92
2023-01-11T06:28:36.249Z,98525.65
2023-01-11T06:30:39.407Z,98524.28
2023-01-11T06:32:43.647Z,98525.18
2023-01-11T06:34:46.349Z,98523.59
2023-01-11T06:36:48.953Z,98521.48
2023-01-11T06:38:52.597Z,98518.36
2023-01-11T06:41:01.542Z,98521.21
2023-01-11T06:43:04.503Z,98522.41
2023-01-11T06:45:08.209Z,98519.64
2023-01-11T06:47:10.833Z,98522.95
2023-01-11T06:49:13.573Z,98518.26
2023-01-11T06:51:16.815Z,98518.98
2023-01-11T06:53:19.803Z,98519.84
2023-01-11T06:55:25.255Z,98515.86
2023-01-11T06:57:28.002Z,98511.70
2023-01-11T06:59:30.633Z,98514.56
2023-01-11T07:01:33.401Z,98518.02
2023-01-11T07:03:36.828Z,98518.13
2023-01-11T07:05:40.237Z,98518.55
2023-01-11T07:07:43.638Z,98518.38
2023-01-11T07:09:46.574Z,98516.98
2023-01-11T07:11:49.181Z,98519.61
2023-01-11T07:13:51.710Z,98516.44
2023-01-11T07:15:57.620Z,98516.04
2023-01-11T07:18:00.516Z,98514.44
2023-01-11T07:20:04.731Z,98520.09
2023-01-11T07:22:08.468Z,98525.52
2023-01-11T07:24:11.100Z,98518.91
2023-01-11T07:26:15.257Z,98521.56
2023-01-11T07:28:19.332Z,98520.08
2023-01-11T07:30:21.901Z,98522.89
2023-01-11T07:32:24.452Z,98527.20
2023-01-11T07:34:26.997Z,98525.65
2023-01-11T07:36:35.999Z,98526.48
2023-01-11T07:38:38.821Z,98530.77
2023-01-11T07:40:41.680Z,98528.47
2023-01-11T07:43:10.543Z,98529.30
2023-01-11T07:45:13.237Z,98530.42
2023-01-11T07:47:15.874Z,98528.04
2023-01-11T07:49:18.589Z,98525.80
2023-01-11T07:51:24.461Z,98523.11
2023-01-11T07:53:27.552Z,98518.75
2023-01-11T07:55:30.416Z,98520.45
2023-01-11T07:57:34.714Z,98521.73
2023-01-11T07:59:37.303Z,98516.14
2023-01-11T08:01:39.837Z,98511.62
2023-01-11T08:03:43.163Z,98512.10
2023-01-11T08:05:52.420Z,98508.52
2023-01-11T08:07:55.162Z,98506.96
2023-01-11T08:09:57.982Z,98504.23
2023-01-11T08:12:19.705Z,98503.92
2023-01-11T08:14:40.804Z,98499.83
2023-01-11T08:16:43.493Z,98498.54
2023-01-11T08:18:46.041Z,98497.95
2023-01-11T08:20:52.821Z,98500.79
2023-01-11T08:22:56.062Z,98503.40
2023-01-11T08:24:58.641Z,98501.21
2023-01-11T08:27:02.602Z,98506.03
2023-01-11T08:29:05.284Z,98498.56
2023-01-11T08:31:08.786Z,98499.69
2023-01-11T08:33:11.658Z,98493.35
2023-01-11T08:35:14.528Z,98494.66
2023-01-11T08:37:17.271Z,98493.86
2023-01-11T08:39:19.947Z,98488.88
2023-01-11T08:41:23.429Z,98484.21
2023-01-11T08:43:26.205Z,98477.80
2023-01-11T08:45:29.126Z,98474.27
2023-01-11T08:47:31.801Z,98466.93
2023-01-11T08:49:34.578Z,98465.53
2023-01-11T08:51:40.670Z,98463.18
2023-01-11T08:53:43.219Z,98466.19
2023-01-11T08:55:48.488Z,98464.20
2023-01-11T08:57:52.420Z,98460.42
2023-01-11T08:59:55.170Z,98459.13
2023-01-11T09:01:57.821Z,98461.79
2023-01-11T09:04:01.493Z,98460.64
2023-01-11T09:06:05.340Z,98456.51
2023-01-11T09:08:08.841Z,98454.48
2023-01-11T09:10:11.582Z,98452.45
2023-01-11T09:12:14.596Z,98449.60
2023-01-11T09:14:17.908Z,98449.26
2023-01-11T09:16:20.588Z,98445.33
2023-01-11T09:18:23.388Z,98449.65
2023-01-11T09:20:26.076Z,98450.16
2023-01-11T09:22:28.823Z,98448.10
2023-01-11T09:24:31.624Z,98449.09
2023-01-11T09:26:36.015Z,98450.24
2023-01-11T09:28:39.204Z,98452.34
2023-01-11T09:30:41.788Z,98458.48
2023-01-11T09:32:46.153Z,98455.44
2023-01-11T09:34:49.720Z,98454.19
2023-01-11T09:36:52.375Z,98455.81
2023-01-11T09:38:57.512Z,98456.72
2023-01-11T09:41:23.146Z,98455.12
2023-01-11T09:43:30.231Z,98460.52
2023-01-11T09:45:34.520Z,98461.93
2023-01-11T09:48:04.824Z,98457.19
2023-01-11T09:50:22.353Z,98453.67
2023-01-11T09:52:29.933Z,98451.81
2023-01-11T09:54:34.287Z,98445.24
2023-01-11T09:56:50.151Z,98442.21
2023-01-11T09:59:01.894Z,98439.83
2023-01-11T10:01:21.678Z,98435.45
2023-01-11T10:03:42.773Z,98436.48
2023-01-11T10:06:01.349Z,98428.91
2023-01-11T10:18:44.753Z,98425.97
2023-01-11T10:19:37.568Z,98429.38
2023-01-11T10:21:58.298Z,98428.30
2023-01-11T10:24:14.761Z,98428.34
2023-01-11T10:26:27.367Z,98431.17
2023-01-11T10:29:18.919Z,98420.60
2023-01-11T10:31:41.260Z,98415.52
2023-01-11T10:34:12.726Z,98414.13
2023-01-11T10:36:55.858Z,98415.08
2023-01-11T10:39:17.542Z,98409.96
2023-01-11T10:41:51.080Z,98410.91
2023-01-11T10:44:10.567Z,98410.95
2023-01-11T10:46:20.346Z,98409.31
2023-01-11T10:48:29.164Z,98412.74
2023-01-11T10:50:48.291Z,98407.70
2023-01-11T10:53:07.145Z,98406.29
2023-01-11T10:55:44.659Z,98409.20
2023-01-11T10:58:13.848Z,98407.73
2023-01-11T11:00:54.454Z,98404.51
2023-01-11T11:03:06.432Z,98402.11
2023-01-11T11:05:27.942Z,98402.39
2023-01-11T11:07:58.020Z,98404.15
2023-01-11T11:10:21.980Z,98400.84
2023-01-11T11:12:35.169Z,98398.35
2023-01-11T11:14:47.112Z,98393.05
2023-01-11T11:16:55.272Z,98390.14
2023-01-11T11:18:59.181Z,98390.98
2023-01-11T11:21:17.308Z,98386.80
2023-01-11T11:23:24.782Z,98389.41
2023-01-11T11:25:43.386Z,98381.27
2023-01-11T11:27:52.987Z,98382.16
2023-01-11T11:29:57.529Z,98384.66
2023-01-11T11:32:01.882Z,98379.33
2023-01-11T11:34:08.241Z,98379.55
2023-01-11T11:36:14.758Z,98377.85
2023-01-11T11:38:25.142Z,98374.41
2023-01-11T11:40:35.111Z,98371.04
2023-01-11T11:42:37.921Z,98372.67
2023-01-11T11:44:40.676Z,98369.45
2023-01-11T11:46:57.172Z,98372.61
2023-01-11T11:49:16.912Z,98369.70
2023-01-11T11:51:23.757Z,98371.73
2023-01-11T11:53:37.670Z,98370.52
2023-01-11T11:55:40.364Z,98366.85
2023-01-11T11:57:44.109Z,98370.15
2023-01-11T11:59:49.267Z,98368.30
2023-01-11T12:01:59.568Z,98364.01
2023-01-11T12:04:12.106Z,98363.97
2023-01-11T12:06:23.343Z,98362.36
2023-01-11T12:08:27.087Z,98354.02
2023-01-11T12:10:31.938Z,98352.81
2023-01-11T12:12:34.608Z,98345.46
2023-01-11T12:14:38.032Z,98345.26
2023-01-11T12:16:42.370Z,98344.60
2023-01-11T12:18:45.022Z,98341.05
2023-01-11T12:20:47.644Z,98341.35
2023-01-11T12:23:08.049Z,98341.43
2023-01-11T12:25:28.838Z,98339.84
2023-01-11T12:27:50.770Z,98338.55
2023-01-11T12:30:29.908Z,98336.55
2023-01-11T12:32:41.450Z,98331.59
2023-01-11T12:34:59.770Z,98327.79
2023-01-11T12:37:25.693Z,98323.98
2023-01-11T12:40:03.605Z,98324.59
2023-01-11T12:42:25.483Z,98322.52
2023-01-11T12:44:49.434Z,98318.79
2023-01-11T12:46:58.408Z,98318.42
2023-01-11T12:49:25.754Z,98317.72
2023-01-11T12:52:16.143Z,98313.79
2023-01-11T12:54:39.940Z,98311.63
2023-01-11T12:57:11.607Z,98311.83
2023-01-11T12:59:55.371Z,98310.94
2023-01-11T13:02:07.337Z,98314.17
2023-01-11T13:05:05.577Z,98308.38
2023-01-11T13:07:40.184Z,98305.99
2023-01-11T13:09:57.826Z,98300.06
2023-01-11T13:12:27.703Z,98299.02
2023-01-11T13:14:49.046Z,98298.16
2023-01-11T13:17:12.425Z,98300.69
2023-01-11T13:19:44.140Z,98302.98
2023-01-11T13:21:53.418Z,98304.71
2023-01-11T13:24:02.373Z,98298.98
2023-01-11T13:26:19.932Z,98299.23
2023-01-11T13:28:34.226Z,98298.90
2023-01-11T13:30:37.243Z,98296.91
2023-01-11T13:32:43.113Z,98297.84
2023-01-11T13:34:51.877Z,98297.46
2023-01-11T13:37:02.866Z,98295.33
2023-01-11T13:39:28.456Z,98298.83
2023-01-11T13:41:41.373Z,98299.41
2023-01-11T13:43:58.537Z,98303.45
2023-01-11T13:46:11.073Z,98305.85
2023-01-11T13:48:31.755Z,98293.14
2023-01-11T13:50:41.901Z,98292.55
2023-01-11T13:53:03.525Z,98295.19
2023-01-11T13:55:26.272Z,98298.36
2023-01-11T13:57:32.322Z,98296.45
2023-01-11T13:59:40.060Z,98302.70
2023-01-11T14:01:51.405Z,98305.48
2023-01-11T14:04:01.208Z,98302.00
2023-01-11T14:06:22.751Z,98296.27
2023-01-11T14:09:07.935Z,98301.77
2023-01-11T14:11:35.399Z,98310.16
2023-01-11T14:14:16.129Z,98313.19
2023-01-11T14:16:32.928Z,98319.18
2023-01-11T14:18:43.216Z,98328.13
2023-01-11T14:20:54.511Z,98330.09
2023-01-11T14:23:08.301Z,98339.40
2023-01-11T14:25:24.490Z,98349.93
2023-01-11T14:28:13.684Z,98359.35
2023-01-11T14:30:22.659Z,98365.59
2023-01-11T14:32:45.836Z,98372.41
2023-01-11T14:35:01.194Z,98376.93
2023-01-11T14:37:34.248Z,98381.04
2023-01-11T14:39:55.607Z,98384.30
2023-01-11T14:42:07.378Z,98385.98
2023-01-11T14:44:26.100Z,98380.33
2023-01-11T14:46:39.216Z,98378.98
2023-01-11T14:48:53.628Z,98373.60
2023-01-11T14:51:32.520Z,98369.33
2023-01-11T14:53:47.371Z,98376.67
2023-01-11T14:55:50.249Z,98370.03
2023-01-11T14:57:55.960Z,98366.95
2023-01-11T15:00:02.196Z,98368.33
2023-01-11T15:02:05.732Z,98374.45
2023-01-11T15:04:20.571Z,98377.42
2023-01-11T15:06:24.290Z,98377.40
2023-01-11T15:08:40.824Z,98393.77
2023-01-11T15:10:50.716Z,98401.01
2023-01-11T15:12:57.359Z,98404.92
2023-01-11T15:15:13.349Z,98415.95
2023-01-11T15:17:38.342Z,98423.74
2023-01-11T15:19:43.405Z,98424.14
2023-01-11T15:21:48.749Z,98422.91
2023-01-11T15:23:54.952Z,98425.40
2023-01-11T15:26:04.455Z,98423.52
2023-01-11T15:28:34.082Z,98420.94
2023-01-11T15:30:38.750Z,98425.19
2023-01-11T15:32:41.538Z,98430.70
2023-01-11T15:34:47.466Z,98429.75
2023-01-11T15:37:00.301Z,98429.95
2023-01-11T15:39:06.761Z,98422.48
2023-01-11T15:41:36.369Z,98423.41
2023-01-11T15:44:03.904Z,98421.72
2023-01-11T15:46:39.359Z,98424.85
2023-01-11T15:49:09.081Z,98425.42
2023-01-11T15:51:51.304Z,98418.45
2023-01-11T15:54:05.097Z,98424.94
2023-01-11T15:56:23.273Z,98431.52
2023-01-11T15:58:47.359Z,98435.36
2023-01-11T16:01:21.163Z,98443.77
2023-01-11T16:03:54.094Z,98446.06
2023-01-11T16:06:17.375Z,98442.30
2023-01-11T16:08:33.275Z,98445.25
2023-01-11T16:10:47.096Z,98451.86
2023-01-11T16:13:06.219Z,98454.20
2023-01-11T16:15:27.775Z,98461.77
2023-01-11T16:17:30.798Z,98462.55
2023-01-11T16:19:40.223Z,98470.29
2023-01-11T16:21:46.811Z,98478.27
2023-01-11T16:23:50.217Z,98480.98
2023-01-11T16:25:56.738Z,98485.03
2023-01-11T16:28:00.419Z,98494.10
2023-01-11T16:30:03.576Z,98498.83
2023-01-11T16:32:18.333Z,98505.94
2023-01-11T16:34:21.391Z,98507.80
2023-01-11T16:36:24.993Z,98510.62
2023-01-11T16:38:28.418Z,98513.44
2023-01-11T16:40:37.900Z,98516.04
2023-01-11T16:42:49.253Z,98524.30
2023-01-11T16:44:58.187Z,98526.75
2023-01-11T16:47:09.222Z,98530.24
2023-01-11T16:49:17.051Z,98534.23
2023-01-11T16:51:21.514Z,98534.18
2023-01-11T16:53:26.072Z,98539.13
2023-01-11T16:55:40.099Z,98544.71
2023-01-11T16:57:48.851Z,98540.52
2023-01-11T17:00:04.487Z,98542.81
2023-01-11T17:02:28.217Z,98543.39
2023-01-11T17:04:34.343Z,98550.42
2023-01-11T17:06:37.181Z,98553.29
2023-01-11T17:08:45.126Z,98558.09
2023-01-11T17:10:52.442Z,98558.10
2023-01-11T17:13:46.100Z,98563.91
2023-01-11T17:15:58.429Z,98565.06
2023-01-11T17:18:03.612Z,98557.21
2023-01-11T17:20:20.227Z,98559.79
2023-01-11T17:22:28.416Z,98560.92
2023-01-11T17:24:36.366Z,98569.61
2023-01-11T17:26:46.830Z,98567.46
2023-01-11T17:28:52.861Z,98564.73
2023-01-11T17:30:55.774Z,98571.63
2023-01-11T17:33:01.765Z,98578.08
2023-01-11T17:35:10.044Z,98583.23
2023-01-11T17:37:15.987Z,98585.17
2023-01-11T17:39:33.918Z,98587.80
2023-01-11T17:41:55.297Z,98593.08
2023-01-11T17:44:16.840Z,98599.14
2023-01-11T17:46:26.128Z,98606.15
2023-01-11T17:48:29.890Z,98604.31
2023-01-11T17:50:45.344Z,98605.24
2023-01-11T17:52:54.710Z,98612.95
2023-01-11T17:55:00.697Z,98612.98
2023-01-11T17:57:04.498Z,98622.64
2023-01-11T17:59:18.475Z,98628.58
2023-01-11T18:01:23.938Z,98630.01
2023-01-11T18:03:26.738Z,98632.25
2023-01-11T18:05:29.837Z,98630.42
2023-01-11T18:07:32.718Z,98631.52
2023-01-11T18:09:45.830Z,98631.09
2023-01-11T18:11:51.212Z,98632.42
2023-01-11T18:13:58.450Z,98630.13
2023-01-11T18:16:03.203Z,98635.17
2023-01-11T18:18:39.642Z,98635.70
2023-01-11T18:20:42.684Z,98638.73
2023-01-11T18:22:59.117Z,98643.90
2023-01-11T18:25:14.640Z,98644.36
2023-01-11T18:27:23.473Z,98654.23
2023-01-11T18:29:45.821Z,98656.86
2023-01-11T18:31:51.189Z,98659.80
2023-01-11T18:33:53.931Z,98655.34
2023-01-11T18:35:59.930Z,98652.35
2023-01-11T18:38:13.679Z,98654.03
2023-01-11T18:40:18.480Z,98654.84
2023-01-11T18:42:25.980Z,98659.08
2023-01-11T18:44:30.883Z,98666.91
2023-01-11T18:46:33.715Z,98668.08
2023-01-11T18:48:37.017Z,98672.58
2023-01-11T18:50:41.987Z,98673.48
2023-01-11T18:52:45.033Z,98674.59
2023-01-11T18:54:48.236Z,98684.42
2023-01-11T18:56:50.908Z,98680.98
2023-01-11T18:58:54.609Z,98678.55
2023-01-11T19:00:57.222Z,98681.57
2023-01-11T19:03:00.303Z,98687.79
2023-01-11T19:05:04.203Z,98692.19
2023-01-11T19:07:07.243Z,98692.20
2023-01-11T19:09:10.129Z,98695.80
2023-01-11T19:11:14.890Z,98692.02
2023-01-11T19:13:19.582Z,98691.88
2023-01-11T19:15:25.621Z,98693.05
2023-01-11T19:17:29.391Z,98696.80
2023-01-11T19:19:37.880Z,98700.91
2023-01-11T19:21:41.130Z,98710.21
2023-01-11T19:23:43.842Z,98709.42
2023-01-11T19:25:56.887Z,98711.62
2023-01-11T19:28:02.658Z,98716.27
2023-01-11T19:30:07.336Z,98714.15
2023-01-11T19:32:10.343Z,98718.50
2023-01-11T19:34:13.938Z,98722.31
2023-01-11T19:36:16.843Z,98726.06
2023-01-11T19:38:21.132Z,98731.58
2023-01-11T19:40:23.826Z,98733.80
2023-01-11T19:42:26.969Z,98737.26
2023-01-11T19:44:35.167Z,98734.13
2023-01-11T19:46:37.974Z,98731.21
2023-01-11T19:48:41.238Z,98731.77
2023-01-11T19:50:47.384Z,98728.40
2023-01-11T19:52:50.230Z,98730.27
2023-01-11T19:54:55.145Z,98728.76
2023-01-11T19:56:57.910Z,98730.48
2023-01-11T19:59:02.583Z,98732.17
2023-01-11T20:01:12.682Z,98734.71
2023-01-11T20:03:15.657Z,98735.34
2023-01-11T20:05:21.674Z,98734.62
2023-01-11T20:07:24.818Z,98739.07
2023-01-11T20:09:27.985Z,98739.36
2023-01-11T20:11:30.733Z,98741.27
2023-01-11T20:13:33.771Z,98742.67
2023-01-11T20:15:38.815Z,98749.27
2023-01-11T20:17:41.915Z,98748.88
2023-01-11T20:19:46.737Z,98750.93
2023-01-11T20:21:49.448Z,98753.19
2023-01-11T20:23:54.837Z,98754.13
2023-01-11T20:26:02.772Z,98749.12
2023-01-11T20:28:05.413Z,98750.70
2023-01-11T20:30:09.991Z,98754.82
2023-01-11T20:32:34.944Z,98758.23
2023-01-11T20:34:35.640Z,98756.58
2023-01-11T20:36:38.557Z,98759.81
2023-01-11T20:38:43.572Z,98759.71
2023-01-11T20:40:46.467Z,98759.19
2023-01-11T20:42:49.654Z,98761.50
2023-01-11T20:44:52.818Z,98765.42
2023-01-11T20:46:56.587Z,98766.86
2023-01-11T20:49:00.474Z,98764.27
2023-01-11T20:51:04.491Z,98765.70
2023-01-11T20:53:07.667Z,98771.08
2023-01-11T20:55:10.744Z,98772.70
2023-01-11T20:57:14.356Z,98775.41
2023-01-11T20:59:19.906Z,98773.10
2023-01-11T21:01:26.496Z,98779.98
2023-01-11T21:03:29.331Z,98770.97
2023-01-11T21:05:32.216Z,98767.94
2023-01-11T21:07:35.167Z,98761.45
2023-01-11T21:09:37.913Z,98760.91
2023-01-11T21:11:40.804Z,98762.73
2023-01-11T21:13:43.607Z,98770.25
2023-01-11T21:15:46.453Z,98775.70
2023-01-11T21:17:50.164Z,98772.33
2023-01-11T21:19:53.809Z,98772.91
2023-01-11T21:21:56.413Z,98771.87
2023-01-11T21:24:01.069Z,98775.77
2023-01-11T21:26:07.225Z,98781.05
2023-01-11T21:28:10.069Z,98778.52
2023-01-11T21:30:13.029Z,98776.80
2023-01-11T21:32:15.629Z,98776.97
2023-01-11T21:34:18.319Z,98781.77
2023-01-11T21:36:23.186Z,98782.98
2023-01-11T21:38:26.467Z,98787.98
2023-01-11T21:40:30.253Z,98786.92
2023-01-11T21:42:33.168Z,98791.60
2023-01-11T21:44:35.932Z,98792.98
2023-01-11T21:46:39.188Z,98791.73
2023-01-11T21:48:41.908Z,98791.23
2023-01-11T21:50:45.805Z,98787.33
2023-01-11T21:52:48.726Z,98782.23
2023-01-11T21:54:52.530Z,98781.30
2023-01-11T21:56:55.118Z,98778.16
2023-01-11T21:58:57.911Z,98780.98
2023-01-11T22:01:08.826Z,98778.77
2023-01-11T22:03:12.649Z,98773.14
2023-01-11T22:05:15.411Z,98777.94
2023-01-11T22:07:18.470Z,98777.54
2023-01-11T22:09:22.978Z,98779.38
2023-01-11T22:11:26.016Z,98777.16
2023-01-11T22:13:30.050Z,98780.05
2023-01-11T22:15:32.709Z,98787.00
2023-01-11T22:17:35.961Z,98788.45
2023-01-11T22:19:39.232Z,98794.83
2023-01-11T22:21:42.524Z,98798.50
2023-01-11T22:23:47.450Z,98798.61
2023-01-11T22:25:50.765Z,98801.86
2023-01-11T22:27:53.369Z,98804.09
2023-01-11T22:29:56.119Z,98803.30
2023-01-11T22:32:01.321Z,98801.07
2023-01-11T22:34:04.090Z,98802.33
2023-01-11T22:36:07.260Z,98803.81
2023-01-11T22:38:09.785Z,98811.30
2023-01-11T22:40:13.221Z,98811.70
2023-01-11T22:42:16.026Z,98814.08
2023-01-11T22:44:19.427Z,98819.79
2023-01-11T22:46:24.603Z,98823.84
2023-01-11T22:48:28.716Z,98819.80
2023-01-11T22:50:31.454Z,98820.01
2023-01-11T22:52:34.328Z,98821.13
2023-01-11T22:54:37.628Z,98819.31
2023-01-11T22:56:41.840Z,98817.79
2023-01-11T22:58:45.507Z,98823.64
2023-01-11T23:00:48.279Z,98827.13
2023-01-11T23:02:50.980Z,98831.20
2023-01-11T23:04:53.774Z,98834.36
2023-01-11T23:06:57.347Z,98835.34
2023-01-11T23:09:00.447Z,98835.97
2023-01-11T23:11:04.153Z,98832.06
2023-01-11T23:13:29.015Z,98832.10
2023-01-11T23:15:32.198Z,98835.09
2023-01-11T23:17:37.270Z,98836.81
2023-01-11T23:19:41.417Z,98830.10
2023-01-11T23:21:45.691Z,98830.33
2023-01-11T23:23:48.555Z,98827.85
2023-01-11T23:25:55.211Z,98825.45
2023-01-11T23:27:57.835Z,98826.98
2023-01-11T23:30:00.446Z,98817.92
2023-01-11T23:32:03.317Z,98810.09
2023-01-11T23:34:09.422Z,98800.45
2023-01-11T23:36:12.571Z,98798.71
2023-01-11T23:38:15.115Z,98803.65
2023-01-11T23:40:17.878Z,98809.49
2023-01-11T23:42:29.519Z,98813.13
2023-01-11T23:44:33.047Z,98809.80
2023-01-11T23:46:55.780Z,98809.30
2023-01-11T23:48:58.487Z,98803.55
2023-01-11T23:51:04.900Z,98802.89
2023-01-11T23:53:07.540Z,98806.52
2023-01-11T23:55:10.871Z,98806.10
2023-01-11T23:57:15.184Z,98809.80
2023-01-11T23:59:17.808Z,98806.56
